This is the latest recevied weather packets stored in our database for station/object DK6GC-10. If no packets are shown the sender has not sent any weather packets the latest 10 day(s).
| Time | Temp. | Humidity | Pressure | Rain* | Wind** | Luminosity | Snow |
|---|---|---|---|---|---|---|---|
| 1788556531 | 24.44° C | 51% | 1017.4 hPa | - | - | - | - |
| 1788555631 | 23.89° C | 54% | 1017 hPa | - | - | - | - |
| 1788554731 | 23.89° C | 55% | 1017 hPa | - | - | - | - |
| 1788553830 | 23.33° C | 59% | 1016.9 hPa | - | - | - | - |
| 1788552930 | 22.22° C | 63% | 1017 hPa | - | - | - | - |
| 1788552030 | 22.22° C | 63% | 1016.9 hPa | - | - | - | - |
| 1788551130 | 22.22° C | 64% | 1016.8 hPa | - | - | - | - |
| 1788550230 | 22.22° C | 63% | 1016.7 hPa | - | - | - | - |
| 1788549329 | 22.78° C | 61% | 1016.6 hPa | - | - | - | - |
| 1788548429 | 23.33° C | 60% | 1016.3 hPa | - | - | - | - |
| 1788547529 | 23.89° C | 58% | 1016.3 hPa | - | - | - | - |
| 1788546629 | 24.44° C | 58% | 1016 hPa | - | - | - | - |
| 1788545729 | 25° C | 54% | 1015.8 hPa | - | - | - | - |
| 1788544822 | 26.11° C | 53% | 1015.7 hPa | - | - | - | - |
| 1788543922 | 27.78° C | 50% | 1015.5 hPa | - | - | - | - |
| 1788543021 | 28.33° C | 47% | 1015.4 hPa | - | - | - | - |
| 1788542120 | 28.89° C | 45% | 1015.4 hPa | - | - | - | - |
| 1788541220 | 28.89° C | 45% | 1015.3 hPa | - | - | - | - |
| 1788540319 | 29.44° C | 44% | 1015.3 hPa | - | - | - | - |
| 1788539419 | 29.44° C | 42% | 1015.4 hPa | - | - | - | - |
| 1788538519 | 30° C | 41% | 1015.5 hPa | - | - | - | - |
| 1788537619 | 30.56° C | 39% | 1015.5 hPa | - | - | - | - |
| 1788536745 | 30.56° C | 40% | 1015.5 hPa | - | - | - | - |
| 1788535818 | 31.11° C | 38% | 1015.5 hPa | - | - | - | - |
| 1788534918 | 30.56° C | 37% | 1015.5 hPa | - | - | - | - |
* Rain since midnight (hover to see other rain measurements)
** Current wind speed in m/s (hover to see current wind gust speed)